Grants-Milan, NM

12:07 PM MDT on April 25, 2017 (GMT -0600)
Grants-Milan Municipal

Weather History for KGNT - November, 2012

Change the Weather History Date:

Wednesday, November 28, 2012

  Actual Average Record
Temperature  
Mean Temperature 38 °F -  
Max Temperature 62 °F 48 °F 71 °F (2014)
Min Temperature 15 °F 15 °F -22 °F (1976)
Degree Days  
Heating Degree Days 26    
Moisture  
Dew Point 14 °F    
Average Humidity 45    
Maximum Humidity 67    
Minimum Humidity 19    
Precipitation  
Precipitation 0.00 in - - ()
Sea Level Pressure  
Sea Level Pressure 30.35 in    
Wind  
Wind Speed 5 mph (NNW)    
Max Wind Speed 8 mph    
Max Gust Speed -    
Visibility 10 miles    
Events      
Averages and records for this station are not official NWS values.
T = Trace of Precipitation, MM = Missing Value Source: NWS Daily Summary

Daily Weather History Graph

Daily Weather History Graph

Search for Another Location

Airport or City:

Trip Planner

Search our weather history database for the weather conditions in past years. The results will help you decide how hot, cold, wet, or windy it might be!

Date:

Astronomy

Nov. 28, 2012 Rise Set
Actual Time 6:59 AM MST 4:59 PM MST
Civil Twilight 6:31 AM MST 5:27 PM MST
Nautical Twilight 6:00 AM MST 5:58 PM MST
Astronomical Twilight 5:29 AM MST 6:29 PM MST
Moon 5:17 PM MST (11/28) 6:59 AM MST (11/28)
Length of Visible Light 10h 55m
Length of Day
10h 00m
Full, 100% of the Moon is Illuminated
Nov 28
Full
Dec 6
Last Quarter
Dec 13
New
Dec 19
First Quarter
Dec 28
Full

Hourly Weather History & Observations

Time (MST) Temp. Windchill Dew Point Humidity Pressure Visibility Wind Dir Wind Speed Gust Speed Precip Events Conditions
12:15 AM 23.4 °F 15.2 °F 10.4 °F 58% 30.41 in 10.0 mi NW 6.9 mph - N/A   Clear
12:35 AM 23.9 °F 15.0 °F 10.0 °F 56% 30.41 in 10.0 mi NW 8.1 mph - N/A   Clear
12:55 AM 25.3 °F 16.7 °F 10.4 °F 53% 30.41 in 10.0 mi WNW 8.1 mph - N/A   Clear
1:15 AM 24.4 °F 15.6 °F 10.4 °F 55% 30.41 in 10.0 mi NW 8.1 mph - N/A   Clear
1:35 AM 21.6 °F 13.0 °F 9.5 °F 60% 30.41 in 10.0 mi NW 6.9 mph - N/A   Clear
1:55 AM 21.2 °F 11.7 °F 8.6 °F 58% 30.41 in 10.0 mi NW 8.1 mph - N/A   Clear
2:15 AM 21.0 °F 13.4 °F 9.0 °F 60% 30.41 in 10.0 mi NW 5.8 mph - N/A   Clear
2:35 AM 20.3 °F 11.5 °F 8.8 °F 61% 30.41 in 10.0 mi NNW 6.9 mph - N/A   Clear
2:55 AM 17.6 °F 9.3 °F 7.3 °F 64% 30.41 in 10.0 mi NW 5.8 mph - N/A   Clear
3:15 AM 20.3 °F 12.5 °F 9.0 °F 62% 30.41 in 10.0 mi WNW 5.8 mph - N/A   Clear
3:35 AM 20.8 °F 11.2 °F 9.0 °F 60% 30.41 in 10.0 mi NW 8.1 mph - N/A   Clear
3:55 AM 20.1 °F 10.3 °F 8.1 °F 60% 30.41 in 10.0 mi NW 8.1 mph - N/A   Clear
4:15 AM 19.0 °F 11.1 °F 7.9 °F 62% 30.40 in 10.0 mi North 5.8 mph - N/A   Clear
4:35 AM 18.1 °F 10.0 °F 6.8 °F 61% 30.40 in 10.0 mi North 5.8 mph - N/A   Clear
4:55 AM 15.3 °F 7.9 °F 5.7 °F 66% 30.40 in 10.0 mi NNW 4.6 mph - N/A   Clear
5:15 AM 16.7 °F 8.3 °F 7.3 °F 67% 30.40 in 10.0 mi NW 5.8 mph - N/A   Clear
5:35 AM 19.2 °F 10.2 °F 8.6 °F 63% 30.40 in 10.0 mi NW 6.9 mph - N/A   Clear
5:55 AM 18.5 °F 8.4 °F 7.7 °F 63% 30.41 in 10.0 mi NW 8.1 mph - N/A   Clear
6:15 AM 18.1 °F 8.9 °F 7.3 °F 63% 30.41 in 10.0 mi NW 6.9 mph - N/A   Clear
6:35 AM 18.3 °F 9.1 °F 7.5 °F 63% 30.41 in 10.0 mi NNW 6.9 mph - N/A   Clear
6:55 AM 18.0 °F 9.8 °F 7.2 °F 63% 30.42 in 10.0 mi NNW 5.8 mph - N/A   Clear
7:15 AM 15.8 °F 6.1 °F 6.6 °F 67% 30.42 in 10.0 mi NW 6.9 mph - N/A   Clear
7:35 AM 18.5 °F 10.4 °F 7.5 °F 62% 30.42 in 10.0 mi NW 5.8 mph - N/A   Clear
7:55 AM 20.1 °F 12.3 °F 7.3 °F 58% 30.41 in 10.0 mi NNW 5.8 mph - N/A   Clear
8:15 AM 23.4 °F 16.2 °F 9.0 °F 54% 30.42 in 10.0 mi NW 5.8 mph - N/A   Clear
8:35 AM 27.7 °F 20.4 °F 10.9 °F 50% 30.42 in 10.0 mi NNW 6.9 mph - N/A   Clear
8:55 AM 30.9 °F 24.3 °F 11.3 °F 44% 30.42 in 10.0 mi NW 6.9 mph - N/A   Clear
9:15 AM 32.2 °F 25.8 °F 11.1 °F 42% 30.43 in 10.0 mi NNW 6.9 mph - N/A   Clear
9:35 AM 34.2 °F 28.2 °F 12.4 °F 41% 30.43 in 10.0 mi NW 6.9 mph - N/A   Clear
9:55 AM 37.8 °F 35.3 °F 13.3 °F 37% 30.42 in 10.0 mi NW 3.5 mph - N/A   Clear
10:15 AM 40.8 °F - 14.4 °F 34% 30.42 in 10.0 mi Calm Calm - N/A   Clear
10:35 AM 43.2 °F - 15.1 °F 32% 30.41 in 10.0 mi Calm Calm - N/A   Clear
10:55 AM 45.7 °F - 16.0 °F 30% 30.40 in 10.0 mi Calm Calm - N/A   Clear
11:15 AM 48.4 °F - 16.7 °F 28% 30.39 in 10.0 mi Calm Calm - N/A   Clear
11:35 AM 50.5 °F - 17.6 °F 27% 30.38 in 10.0 mi Calm Calm - N/A   Clear
11:55 AM 53.2 °F - 18.5 °F 26% 30.37 in 10.0 mi Calm Calm - N/A   Clear
12:15 PM 54.7 °F - 19.9 °F 26% 30.35 in 10.0 mi Calm Calm - N/A   Clear
12:35 PM 56.7 °F - 20.1 °F 24% 30.32 in 10.0 mi Calm Calm - N/A   Clear
12:55 PM 60.1 °F - 19.0 °F 20% 30.31 in 10.0 mi ESE 4.6 mph - N/A   Clear
1:15 PM 60.4 °F - 18.9 °F 20% 30.29 in 10.0 mi Calm Calm - N/A   Clear
1:35 PM 61.3 °F - 18.7 °F 19% 30.29 in 10.0 mi North 6.9 mph - N/A   Clear
1:55 PM 61.2 °F - 19.2 °F 20% 30.28 in 10.0 mi NE 3.5 mph - N/A   Clear
2:15 PM 62.2 °F - 19.2 °F 19% 30.28 in 10.0 mi NW 4.6 mph - N/A   Clear
2:35 PM 61.7 °F - 19.0 °F 19% 30.27 in 10.0 mi NNE 3.5 mph - N/A   Clear
2:55 PM 62.2 °F - 18.9 °F 19% 30.26 in 10.0 mi ENE 3.5 mph - N/A   Clear
3:15 PM 62.1 °F - 18.5 °F 19% 30.26 in 10.0 mi Calm Calm - N/A   Clear
3:35 PM 61.7 °F - 18.3 °F 19% 30.26 in 10.0 mi Calm Calm - N/A   Clear
3:55 PM 61.3 °F - 18.3 °F 19% 30.26 in 10.0 mi NNW 4.6 mph - N/A   Clear
4:15 PM 60.6 °F - 18.1 °F 19% 30.26 in 10.0 mi East 4.6 mph - N/A   Clear
4:35 PM 58.8 °F - 18.0 °F 20% 30.26 in 10.0 mi North 4.6 mph - N/A   Clear
4:55 PM 50.4 °F - 18.1 °F 28% 30.25 in 10.0 mi West 3.5 mph - N/A   Clear
5:15 PM 47.7 °F - 18.1 °F 31% 30.25 in 10.0 mi Calm Calm - N/A   Clear
5:35 PM 43.5 °F 41.9 °F 17.1 °F 35% 30.26 in 10.0 mi WSW 3.5 mph - N/A   Clear
5:55 PM 46.6 °F - 19.6 °F 34% 30.26 in 10.0 mi Calm Calm - N/A   Clear
6:15 PM 43.9 °F - 19.6 °F 38% 30.26 in 10.0 mi Calm Calm - N/A   Clear
6:35 PM 38.1 °F - 18.5 °F 45% 30.26 in 10.0 mi Calm Calm - N/A   Clear
6:55 PM 37.2 °F - 16.9 °F 44% 30.27 in 10.0 mi Calm Calm - N/A   Clear
7:15 PM 41.0 °F 39.0 °F 19.4 °F 42% 30.27 in 10.0 mi WNW 3.5 mph - N/A   Clear
7:35 PM 35.1 °F - 16.9 °F 48% 30.27 in 10.0 mi Calm Calm - N/A   Clear
7:55 PM 34.0 °F - 17.4 °F 51% 30.28 in 10.0 mi Calm Calm - N/A   Clear
8:15 PM 32.4 °F 27.9 °F 16.3 °F 52% 30.28 in 10.0 mi NNW 4.6 mph - N/A   Clear
8:35 PM 32.0 °F 27.5 °F 15.3 °F 50% 30.28 in 10.0 mi North 4.6 mph - N/A   Clear
8:55 PM 32.2 °F 25.8 °F 14.7 °F 49% 30.30 in 10.0 mi NNW 6.9 mph - N/A   Clear
9:15 PM 32.2 °F - 15.6 °F 51% 30.29 in 10.0 mi Calm Calm - N/A   Clear
9:35 PM 31.8 °F 27.3 °F 15.8 °F 52% 30.30 in 10.0 mi North 4.6 mph - N/A   Clear
9:55 PM 29.3 °F - 14.0 °F 53% 30.30 in 10.0 mi Calm Calm - N/A   Clear
10:15 PM 27.0 °F 23.0 °F 14.4 °F 59% 30.31 in 10.0 mi NW 3.5 mph - N/A   Clear
10:35 PM 28.2 °F 23.1 °F 13.8 °F 55% 30.31 in 10.0 mi NNW 4.6 mph - N/A   Clear
10:55 PM 25.9 °F 20.3 °F 12.9 °F 58% 30.31 in 10.0 mi NW 4.6 mph - N/A   Clear
11:15 PM 26.2 °F 20.7 °F 12.9 °F 57% 30.30 in 10.0 mi NW 4.6 mph - N/A   Clear
11:35 PM 26.8 °F 20.2 °F 12.9 °F 56% 30.30 in 10.0 mi North 5.8 mph - N/A   Clear